Disclaimer

Please do not use the information listed here in-flight or in-navigation, as they are not provided to us by the airports but are provided by volunteers, so they might be outdated.

Search


Regions


Airport information page

Radio informations:
Tower (TWR) - 118.1 MHz
Automatic Terminal Information Service (ATIS) - 132.1 MHz

Airport informations:
Latitude: 24° 07' 27.10" N
Longitude: 104° 31' 40.85" W
Elevation: 6104 feet - 1860 meters
Operating hours: Remarks
Operating agency: Civil government, landing fees and diplomatic clearance may be required
Timezone: UTC-6(-5DT) - First Sunday in April to the last Saturday in October
Fuel: 100/130 octane gasoline, leaded, MIL-L-5572F (GREEN)

80/87 octane gasoline, leaded, MIL-L-5572F (RED)

Jet fuel avaiable but type is unknown.

Runway information:
03/21 - 9514 x 148 feet< - >2900 x 45 meters

Recent METARs:
MMDO 162350Z 20015KT 12SM BKN200 18/M03 A3013 RMK SLP153 52002 960 8/008
MMDO 162350Z 20015KT 12SM BKN200 18/M03 A3013 RMK SLP153 52002 960 8/008
MMDO 170044Z 19011KT 10SM BKN200 16/M02 A3015 RMK 8/008

Airport on the map: